sensor_id;sensor_type;location;lat;lon;timestamp;P1;durP1;ratioP1;P2;durP2;ratioP2
8464;SDS011;72380;52.680;13.606;2023-09-12T00:01:20;9.27;;;5.17;;
8464;SDS011;72380;52.680;13.606;2023-09-12T00:03:49;10.67;;;4.33;;
8464;SDS011;72380;52.680;13.606;2023-09-12T00:06:18;8.03;;;4.20;;
8464;SDS011;72380;52.680;13.606;2023-09-12T00:08:49;7.13;;;4.43;;
8464;SDS011;72380;52.680;13.606;2023-09-12T00:11:18;4.70;;;4.20;;
8464;SDS011;72380;52.680;13.606;2023-09-12T00:13:45;4.80;;;4.23;;
8464;SDS011;72380;52.680;13.606;2023-09-12T00:16:12;9.57;;;4.57;;
8464;SDS011;72380;52.680;13.606;2023-09-12T00:18:40;4.50;;;4.07;;
8464;SDS011;72380;52.680;13.606;2023-09-12T00:21:09;5.57;;;4.30;;
8464;SDS011;72380;52.680;13.606;2023-09-12T00:23:36;7.10;;;4.43;;
8464;SDS011;72380;52.680;13.606;2023-09-12T00:26:03;7.17;;;4.77;;
8464;SDS011;72380;52.680;13.606;2023-09-12T00:28:31;6.80;;;4.13;;
8464;SDS011;72380;52.680;13.606;2023-09-12T00:30:58;11.50;;;4.90;;
8464;SDS011;72380;52.680;13.606;2023-09-12T00:33:26;4.53;;;3.73;;
8464;SDS011;72380;52.680;13.606;2023-09-12T00:35:53;9.23;;;4.57;;
8464;SDS011;72380;52.680;13.606;2023-09-12T00:38:22;9.90;;;4.70;;
8464;SDS011;72380;52.680;13.606;2023-09-12T00:40:49;7.33;;;4.17;;
8464;SDS011;72380;52.680;13.606;2023-09-12T00:43:16;6.90;;;4.33;;
8464;SDS011;72380;52.680;13.606;2023-09-12T00:45:44;9.50;;;4.77;;
8464;SDS011;72380;52.680;13.606;2023-09-12T00:48:11;7.17;;;4.33;;
8464;SDS011;72380;52.680;13.606;2023-09-12T00:50:39;7.30;;;4.67;;
8464;SDS011;72380;52.680;13.606;2023-09-12T00:53:08;6.80;;;3.40;;
8464;SDS011;72380;52.680;13.606;2023-09-12T00:55:37;5.33;;;3.93;;
8464;SDS011;72380;52.680;13.606;2023-09-12T00:58:06;6.60;;;4.37;;
8464;SDS011;72380;52.680;13.606;2023-09-12T01:00:35;10.23;;;4.33;;
8464;SDS011;72380;52.680;13.606;2023-09-12T01:03:03;5.53;;;3.80;;
8464;SDS011;72380;52.680;13.606;2023-09-12T01:05:30;9.60;;;3.97;;
8464;SDS011;72380;52.680;13.606;2023-09-12T01:07:58;5.57;;;3.70;;
8464;SDS011;72380;52.680;13.606;2023-09-12T01:10:26;18.30;;;3.90;;
8464;SDS011;72380;52.680;13.606;2023-09-12T01:12:54;8.23;;;4.07;;
8464;SDS011;72380;52.680;13.606;2023-09-12T01:15:22;7.33;;;4.07;;
8464;SDS011;72380;52.680;13.606;2023-09-12T01:17:49;6.80;;;4.20;;
8464;SDS011;72380;52.680;13.606;2023-09-12T01:20:19;7.07;;;4.47;;
8464;SDS011;72380;52.680;13.606;2023-09-12T01:22:55;11.17;;;3.93;;
8464;SDS011;72380;52.680;13.606;2023-09-12T01:25:29;7.07;;;4.20;;
8464;SDS011;72380;52.680;13.606;2023-09-12T01:28:03;6.73;;;4.13;;
8464;SDS011;72380;52.680;13.606;2023-09-12T01:30:31;5.37;;;4.07;;
8464;SDS011;72380;52.680;13.606;2023-09-12T01:32:59;5.20;;;3.97;;
8464;SDS011;72380;52.680;13.606;2023-09-12T01:35:27;4.03;;;3.40;;
8464;SDS011;72380;52.680;13.606;2023-09-12T01:37:54;5.77;;;4.53;;
8464;SDS011;72380;52.680;13.606;2023-09-12T01:40:24;7.50;;;4.80;;
8464;SDS011;72380;52.680;13.606;2023-09-12T01:42:54;12.20;;;4.67;;
8464;SDS011;72380;52.680;13.606;2023-09-12T01:45:24;7.23;;;4.00;;
8464;SDS011;72380;52.680;13.606;2023-09-12T01:47:52;13.47;;;4.70;;
8464;SDS011;72380;52.680;13.606;2023-09-12T01:50:20;7.97;;;4.13;;
8464;SDS011;72380;52.680;13.606;2023-09-12T01:52:47;5.73;;;4.00;;
8464;SDS011;72380;52.680;13.606;2023-09-12T01:55:16;5.73;;;4.17;;
8464;SDS011;72380;52.680;13.606;2023-09-12T01:57:43;6.77;;;4.20;;
8464;SDS011;72380;52.680;13.606;2023-09-12T02:00:12;15.20;;;4.43;;
8464;SDS011;72380;52.680;13.606;2023-09-12T02:02:41;6.67;;;4.57;;
8464;SDS011;72380;52.680;13.606;2023-09-12T02:05:09;9.47;;;4.10;;
8464;SDS011;72380;52.680;13.606;2023-09-12T02:07:38;10.77;;;4.83;;
8464;SDS011;72380;52.680;13.606;2023-09-12T02:10:06;6.30;;;4.73;;
8464;SDS011;72380;52.680;13.606;2023-09-12T02:12:35;6.33;;;4.30;;
8464;SDS011;72380;52.680;13.606;2023-09-12T02:15:02;8.33;;;3.93;;
8464;SDS011;72380;52.680;13.606;2023-09-12T02:17:30;15.23;;;4.17;;
8464;SDS011;72380;52.680;13.606;2023-09-12T02:19:58;6.03;;;4.17;;
8464;SDS011;72380;52.680;13.606;2023-09-12T02:22:25;6.70;;;4.20;;
8464;SDS011;72380;52.680;13.606;2023-09-12T02:24:53;8.43;;;4.30;;
8464;SDS011;72380;52.680;13.606;2023-09-12T02:27:20;5.97;;;3.90;;
8464;SDS011;72380;52.680;13.606;2023-09-12T02:29:47;5.07;;;3.83;;
8464;SDS011;72380;52.680;13.606;2023-09-12T02:32:15;5.67;;;4.23;;
8464;SDS011;72380;52.680;13.606;2023-09-12T02:34:42;6.23;;;4.80;;
8464;SDS011;72380;52.680;13.606;2023-09-12T02:37:10;7.80;;;5.07;;
8464;SDS011;72380;52.680;13.606;2023-09-12T02:39:38;8.17;;;4.70;;
8464;SDS011;72380;52.680;13.606;2023-09-12T02:42:05;7.03;;;4.67;;
8464;SDS011;72380;52.680;13.606;2023-09-12T02:44:32;6.23;;;4.37;;
8464;SDS011;72380;52.680;13.606;2023-09-12T02:47:00;7.30;;;5.03;;
8464;SDS011;72380;52.680;13.606;2023-09-12T02:49:27;7.47;;;4.47;;
8464;SDS011;72380;52.680;13.606;2023-09-12T02:51:54;7.50;;;5.10;;
8464;SDS011;72380;52.680;13.606;2023-09-12T02:54:23;7.70;;;5.30;;
8464;SDS011;72380;52.680;13.606;2023-09-12T02:56:50;7.67;;;4.37;;
8464;SDS011;72380;52.680;13.606;2023-09-12T02:59:17;7.67;;;4.40;;
8464;SDS011;72380;52.680;13.606;2023-09-12T03:01:45;9.73;;;5.17;;
8464;SDS011;72380;52.680;13.606;2023-09-12T03:04:12;7.50;;;4.80;;
8464;SDS011;72380;52.680;13.606;2023-09-12T03:06:39;9.33;;;5.43;;
8464;SDS011;72380;52.680;13.606;2023-09-12T03:09:07;7.67;;;4.23;;
8464;SDS011;72380;52.680;13.606;2023-09-12T03:11:35;9.50;;;3.80;;
8464;SDS011;72380;52.680;13.606;2023-09-12T03:14:03;8.17;;;4.20;;
8464;SDS011;72380;52.680;13.606;2023-09-12T03:16:30;6.53;;;4.53;;
8464;SDS011;72380;52.680;13.606;2023-09-12T03:18:57;6.73;;;4.57;;
8464;SDS011;72380;52.680;13.606;2023-09-12T03:21:26;8.33;;;4.73;;
8464;SDS011;72380;52.680;13.606;2023-09-12T03:23:53;11.53;;;5.23;;
8464;SDS011;72380;52.680;13.606;2023-09-12T03:26:21;10.87;;;4.40;;
8464;SDS011;72380;52.680;13.606;2023-09-12T03:28:49;5.87;;;4.30;;
8464;SDS011;72380;52.680;13.606;2023-09-12T03:31:17;6.20;;;3.83;;
8464;SDS011;72380;52.680;13.606;2023-09-12T03:33:44;7.67;;;4.53;;
8464;SDS011;72380;52.680;13.606;2023-09-12T03:36:15;5.70;;;4.47;;
8464;SDS011;72380;52.680;13.606;2023-09-12T03:38:42;10.63;;;4.67;;
8464;SDS011;72380;52.680;13.606;2023-09-12T03:41:09;7.53;;;5.03;;
8464;SDS011;72380;52.680;13.606;2023-09-12T03:43:37;6.87;;;4.40;;
8464;SDS011;72380;52.680;13.606;2023-09-12T03:46:05;7.27;;;4.53;;
8464;SDS011;72380;52.680;13.606;2023-09-12T03:48:33;9.03;;;4.00;;
8464;SDS011;72380;52.680;13.606;2023-09-12T03:51:02;4.73;;;3.53;;
8464;SDS011;72380;52.680;13.606;2023-09-12T03:53:30;14.73;;;4.63;;
8464;SDS011;72380;52.680;13.606;2023-09-12T03:55:57;7.00;;;5.00;;
8464;SDS011;72380;52.680;13.606;2023-09-12T03:58:25;5.43;;;4.20;;
8464;SDS011;72380;52.680;13.606;2023-09-12T04:00:53;9.37;;;4.73;;
8464;SDS011;72380;52.680;13.606;2023-09-12T04:03:22;6.70;;;5.10;;
8464;SDS011;72380;52.680;13.606;2023-09-12T04:05:49;7.63;;;4.43;;
8464;SDS011;72380;52.680;13.606;2023-09-12T04:08:17;7.93;;;4.37;;
8464;SDS011;72380;52.680;13.606;2023-09-12T04:10:44;13.43;;;4.90;;
8464;SDS011;72380;52.680;13.606;2023-09-12T04:13:11;8.50;;;5.53;;
8464;SDS011;72380;52.680;13.606;2023-09-12T04:15:39;8.67;;;5.73;;
8464;SDS011;72380;52.680;13.606;2023-09-12T04:18:06;7.87;;;5.30;;
8464;SDS011;72380;52.680;13.606;2023-09-12T04:20:35;5.50;;;4.37;;
8464;SDS011;72380;52.680;13.606;2023-09-12T04:23:02;12.20;;;4.57;;
8464;SDS011;72380;52.680;13.606;2023-09-12T04:25:30;7.17;;;4.60;;
8464;SDS011;72380;52.680;13.606;2023-09-12T04:27:58;7.03;;;4.50;;
8464;SDS011;72380;52.680;13.606;2023-09-12T04:30:26;9.70;;;4.73;;
8464;SDS011;72380;52.680;13.606;2023-09-12T04:32:53;9.63;;;5.43;;
8464;SDS011;72380;52.680;13.606;2023-09-12T04:35:20;7.10;;;4.97;;
8464;SDS011;72380;52.680;13.606;2023-09-12T04:37:51;7.33;;;4.43;;
8464;SDS011;72380;52.680;13.606;2023-09-12T04:40:18;15.00;;;5.60;;
8464;SDS011;72380;52.680;13.606;2023-09-12T04:42:46;9.30;;;5.87;;
8464;SDS011;72380;52.680;13.606;2023-09-12T04:45:13;9.10;;;4.93;;
8464;SDS011;72380;52.680;13.606;2023-09-12T04:47:40;7.57;;;5.40;;
8464;SDS011;72380;52.680;13.606;2023-09-12T04:50:08;9.30;;;5.07;;
8464;SDS011;72380;52.680;13.606;2023-09-12T04:52:37;6.20;;;4.30;;
8464;SDS011;72380;52.680;13.606;2023-09-12T04:55:06;5.53;;;4.40;;
8464;SDS011;72380;52.680;13.606;2023-09-12T04:57:33;8.60;;;4.77;;
8464;SDS011;72380;52.680;13.606;2023-09-12T05:00:00;7.80;;;5.23;;
8464;SDS011;72380;52.680;13.606;2023-09-12T05:02:27;7.70;;;4.67;;
8464;SDS011;72380;52.680;13.606;2023-09-12T05:04:55;9.97;;;4.60;;
8464;SDS011;72380;52.680;13.606;2023-09-12T05:07:23;6.90;;;5.13;;
8464;SDS011;72380;52.680;13.606;2023-09-12T05:09:50;10.87;;;5.27;;
8464;SDS011;72380;52.680;13.606;2023-09-12T05:12:18;6.30;;;4.57;;
8464;SDS011;72380;52.680;13.606;2023-09-12T05:14:46;7.30;;;4.67;;
8464;SDS011;72380;52.680;13.606;2023-09-12T05:17:13;7.57;;;5.40;;
8464;SDS011;72380;52.680;13.606;2023-09-12T05:19:40;12.30;;;5.73;;
8464;SDS011;72380;52.680;13.606;2023-09-12T05:22:08;9.00;;;4.53;;
8464;SDS011;72380;52.680;13.606;2023-09-12T05:24:35;9.57;;;5.83;;
8464;SDS011;72380;52.680;13.606;2023-09-12T05:27:02;7.00;;;4.97;;
8464;SDS011;72380;52.680;13.606;2023-09-12T05:29:32;7.63;;;4.53;;
8464;SDS011;72380;52.680;13.606;2023-09-12T05:31:59;8.03;;;5.30;;
8464;SDS011;72380;52.680;13.606;2023-09-12T05:34:27;7.77;;;5.37;;
8464;SDS011;72380;52.680;13.606;2023-09-12T05:36:54;10.87;;;5.63;;
8464;SDS011;72380;52.680;13.606;2023-09-12T05:39:21;11.40;;;5.63;;
8464;SDS011;72380;52.680;13.606;2023-09-12T05:41:48;9.50;;;5.83;;
8464;SDS011;72380;52.680;13.606;2023-09-12T05:44:16;6.47;;;4.83;;
8464;SDS011;72380;52.680;13.606;2023-09-12T05:46:45;10.50;;;5.57;;
8464;SDS011;72380;52.680;13.606;2023-09-12T05:49:13;6.97;;;5.40;;
8464;SDS011;72380;52.680;13.606;2023-09-12T05:51:40;7.10;;;5.80;;
8464;SDS011;72380;52.680;13.606;2023-09-12T05:54:09;7.03;;;5.10;;
8464;SDS011;72380;52.680;13.606;2023-09-12T05:56:37;9.97;;;5.87;;
8464;SDS011;72380;52.680;13.606;2023-09-12T05:59:04;7.10;;;5.00;;
8464;SDS011;72380;52.680;13.606;2023-09-12T06:01:31;8.43;;;4.27;;
8464;SDS011;72380;52.680;13.606;2023-09-12T06:04:00;7.50;;;5.50;;
8464;SDS011;72380;52.680;13.606;2023-09-12T06:06:27;8.60;;;5.30;;
8464;SDS011;72380;52.680;13.606;2023-09-12T06:08:55;8.17;;;5.33;;
8464;SDS011;72380;52.680;13.606;2023-09-12T06:11:23;10.97;;;5.80;;
8464;SDS011;72380;52.680;13.606;2023-09-12T06:13:51;8.90;;;5.27;;
8464;SDS011;72380;52.680;13.606;2023-09-12T06:16:18;7.60;;;5.93;;
8464;SDS011;72380;52.680;13.606;2023-09-12T06:18:45;7.57;;;5.00;;
8464;SDS011;72380;52.680;13.606;2023-09-12T06:21:15;7.03;;;4.70;;
8464;SDS011;72380;52.680;13.606;2023-09-12T06:23:42;7.73;;;5.57;;
8464;SDS011;72380;52.680;13.606;2023-09-12T06:26:09;6.50;;;4.33;;
8464;SDS011;72380;52.680;13.606;2023-09-12T06:28:37;7.50;;;5.13;;
8464;SDS011;72380;52.680;13.606;2023-09-12T06:31:07;11.40;;;4.90;;
8464;SDS011;72380;52.680;13.606;2023-09-12T06:33:34;9.37;;;4.87;;
8464;SDS011;72380;52.680;13.606;2023-09-12T06:36:02;7.80;;;5.20;;
8464;SDS011;72380;52.680;13.606;2023-09-12T06:38:30;10.67;;;6.50;;
8464;SDS011;72380;52.680;13.606;2023-09-12T06:40:58;7.10;;;4.77;;
8464;SDS011;72380;52.680;13.606;2023-09-12T06:43:25;8.50;;;5.87;;
8464;SDS011;72380;52.680;13.606;2023-09-12T06:45:52;7.87;;;5.33;;
8464;SDS011;72380;52.680;13.606;2023-09-12T06:48:20;9.07;;;5.63;;
8464;SDS011;72380;52.680;13.606;2023-09-12T06:50:47;7.20;;;5.50;;
8464;SDS011;72380;52.680;13.606;2023-09-12T06:53:15;9.70;;;4.73;;
8464;SDS011;72380;52.680;13.606;2023-09-12T06:55:44;8.03;;;5.10;;
8464;SDS011;72380;52.680;13.606;2023-09-12T06:58:11;5.20;;;4.40;;
8464;SDS011;72380;52.680;13.606;2023-09-12T07:00:39;8.50;;;5.63;;
8464;SDS011;72380;52.680;13.606;2023-09-12T07:03:06;10.70;;;5.60;;
8464;SDS011;72380;52.680;13.606;2023-09-12T07:05:35;8.93;;;5.73;;
8464;SDS011;72380;52.680;13.606;2023-09-12T07:08:04;6.83;;;4.87;;
8464;SDS011;72380;52.680;13.606;2023-09-12T07:10:31;14.93;;;4.63;;
8464;SDS011;72380;52.680;13.606;2023-09-12T07:13:00;12.80;;;5.30;;
8464;SDS011;72380;52.680;13.606;2023-09-12T07:15:27;6.90;;;5.00;;
8464;SDS011;72380;52.680;13.606;2023-09-12T07:17:55;14.10;;;6.17;;
8464;SDS011;72380;52.680;13.606;2023-09-12T07:20:24;10.87;;;5.97;;
8464;SDS011;72380;52.680;13.606;2023-09-12T07:22:52;5.67;;;4.03;;
8464;SDS011;72380;52.680;13.606;2023-09-12T07:25:19;8.40;;;3.90;;
8464;SDS011;72380;52.680;13.606;2023-09-12T07:27:49;7.93;;;4.23;;
8464;SDS011;72380;52.680;13.606;2023-09-12T07:30:18;8.00;;;5.07;;
8464;SDS011;72380;52.680;13.606;2023-09-12T07:32:45;6.37;;;5.03;;
8464;SDS011;72380;52.680;13.606;2023-09-12T07:35:12;6.93;;;4.60;;
8464;SDS011;72380;52.680;13.606;2023-09-12T07:37:39;5.23;;;3.67;;
8464;SDS011;72380;52.680;13.606;2023-09-12T07:40:08;9.03;;;4.97;;
8464;SDS011;72380;52.680;13.606;2023-09-12T07:42:36;6.10;;;4.13;;
8464;SDS011;72380;52.680;13.606;2023-09-12T07:45:04;8.90;;;4.50;;
8464;SDS011;72380;52.680;13.606;2023-09-12T07:47:33;6.30;;;4.00;;
8464;SDS011;72380;52.680;13.606;2023-09-12T07:50:00;9.73;;;4.00;;
8464;SDS011;72380;52.680;13.606;2023-09-12T07:52:28;6.53;;;3.77;;
8464;SDS011;72380;52.680;13.606;2023-09-12T07:54:58;8.90;;;3.67;;
8464;SDS011;72380;52.680;13.606;2023-09-12T07:57:26;5.57;;;3.30;;
8464;SDS011;72380;52.680;13.606;2023-09-12T07:59:53;6.70;;;3.57;;
8464;SDS011;72380;52.680;13.606;2023-09-12T08:02:20;7.30;;;3.73;;
8464;SDS011;72380;52.680;13.606;2023-09-12T08:04:49;6.17;;;3.70;;
8464;SDS011;72380;52.680;13.606;2023-09-12T08:07:17;8.60;;;4.50;;
8464;SDS011;72380;52.680;13.606;2023-09-12T08:09:47;11.40;;;3.73;;
8464;SDS011;72380;52.680;13.606;2023-09-12T08:12:15;5.20;;;3.53;;
8464;SDS011;72380;52.680;13.606;2023-09-12T08:14:42;8.17;;;3.07;;
8464;SDS011;72380;52.680;13.606;2023-09-12T08:17:10;5.57;;;3.50;;
8464;SDS011;72380;52.680;13.606;2023-09-12T08:19:37;5.90;;;3.33;;
8464;SDS011;72380;52.680;13.606;2023-09-12T08:22:07;12.03;;;4.50;;
8464;SDS011;72380;52.680;13.606;2023-09-12T08:24:34;8.30;;;3.97;;
8464;SDS011;72380;52.680;13.606;2023-09-12T08:27:02;7.77;;;3.43;;
8464;SDS011;72380;52.680;13.606;2023-09-12T08:29:29;6.67;;;3.00;;
8464;SDS011;72380;52.680;13.606;2023-09-12T08:31:57;9.57;;;3.50;;
8464;SDS011;72380;52.680;13.606;2023-09-12T08:34:24;5.97;;;3.33;;
8464;SDS011;72380;52.680;13.606;2023-09-12T08:36:52;5.50;;;3.77;;
8464;SDS011;72380;52.680;13.606;2023-09-12T08:39:23;4.80;;;3.43;;
8464;SDS011;72380;52.680;13.606;2023-09-12T08:41:51;13.53;;;3.60;;
8464;SDS011;72380;52.680;13.606;2023-09-12T08:44:19;5.80;;;2.67;;
8464;SDS011;72380;52.680;13.606;2023-09-12T08:46:47;3.83;;;3.00;;
8464;SDS011;72380;52.680;13.606;2023-09-12T08:49:14;7.27;;;3.30;;
8464;SDS011;72380;52.680;13.606;2023-09-12T08:51:42;6.50;;;2.97;;
8464;SDS011;72380;52.680;13.606;2023-09-12T08:54:09;5.27;;;3.17;;
8464;SDS011;72380;52.680;13.606;2023-09-12T08:56:39;5.93;;;3.83;;
8464;SDS011;72380;52.680;13.606;2023-09-12T08:59:07;4.23;;;3.23;;
8464;SDS011;72380;52.680;13.606;2023-09-12T09:01:35;7.70;;;3.50;;
8464;SDS011;72380;52.680;13.606;2023-09-12T09:04:03;4.83;;;2.63;;
8464;SDS011;72380;52.680;13.606;2023-09-12T09:06:32;4.53;;;2.80;;
8464;SDS011;72380;52.680;13.606;2023-09-12T09:09:04;6.63;;;2.60;;
8464;SDS011;72380;52.680;13.606;2023-09-12T09:11:31;7.83;;;3.03;;
8464;SDS011;72380;52.680;13.606;2023-09-12T09:14:01;8.67;;;3.20;;
8464;SDS011;72380;52.680;13.606;2023-09-12T09:16:29;15.03;;;3.70;;
8464;SDS011;72380;52.680;13.606;2023-09-12T09:18:57;3.93;;;2.57;;
8464;SDS011;72380;52.680;13.606;2023-09-12T09:21:26;5.40;;;3.03;;
8464;SDS011;72380;52.680;13.606;2023-09-12T09:23:55;10.20;;;2.70;;
8464;SDS011;72380;52.680;13.606;2023-09-12T09:26:23;4.07;;;2.53;;
8464;SDS011;72380;52.680;13.606;2023-09-12T09:29:08;6.60;;;3.63;;
8464;SDS011;72380;52.680;13.606;2023-09-12T09:31:35;15.40;;;4.07;;
8464;SDS011;72380;52.680;13.606;2023-09-12T09:34:10;5.77;;;2.97;;
8464;SDS011;72380;52.680;13.606;2023-09-12T09:36:40;9.05;;;2.80;;
8464;SDS011;72380;52.680;13.606;2023-09-12T09:39:07;8.88;;;2.88;;
8464;SDS011;72380;52.680;13.606;2023-09-12T09:41:35;6.82;;;2.53;;
8464;SDS011;72380;52.680;13.606;2023-09-12T09:44:03;13.35;;;4.30;;
8464;SDS011;72380;52.680;13.606;2023-09-12T09:46:32;8.35;;;3.17;;
8464;SDS011;72380;52.680;13.606;2023-09-12T09:49:00;4.13;;;2.80;;
8464;SDS011;72380;52.680;13.606;2023-09-12T09:51:29;5.25;;;2.72;;
8464;SDS011;72380;52.680;13.606;2023-09-12T09:53:56;3.33;;;2.53;;
8464;SDS011;72380;52.680;13.606;2023-09-12T09:56:26;6.68;;;3.15;;
8464;SDS011;72380;52.680;13.606;2023-09-12T09:58:53;3.25;;;2.95;;
8464;SDS011;72380;52.680;13.606;2023-09-12T10:01:22;10.48;;;2.95;;
8464;SDS011;72380;52.680;13.606;2023-09-12T10:03:51;9.23;;;3.65;;
8464;SDS011;72380;52.680;13.606;2023-09-12T10:06:19;5.22;;;3.08;;
8464;SDS011;72380;52.680;13.606;2023-09-12T10:08:49;2.95;;;2.50;;
8464;SDS011;72380;52.680;13.606;2023-09-12T10:11:17;4.25;;;3.05;;
8464;SDS011;72380;52.680;13.606;2023-09-12T10:13:46;6.45;;;2.70;;
8464;SDS011;72380;52.680;13.606;2023-09-12T10:16:14;6.43;;;3.33;;
8464;SDS011;72380;52.680;13.606;2023-09-12T10:18:44;7.63;;;2.88;;
8464;SDS011;72380;52.680;13.606;2023-09-12T10:21:15;8.68;;;3.38;;
8464;SDS011;72380;52.680;13.606;2023-09-12T10:23:44;5.20;;;3.08;;
8464;SDS011;72380;52.680;13.606;2023-09-12T10:26:12;9.27;;;4.25;;
8464;SDS011;72380;52.680;13.606;2023-09-12T10:28:40;4.28;;;3.22;;
8464;SDS011;72380;52.680;13.606;2023-09-12T10:31:08;6.30;;;3.40;;
8464;SDS011;72380;52.680;13.606;2023-09-12T10:33:36;7.40;;;4.03;;
8464;SDS011;72380;52.680;13.606;2023-09-12T10:36:03;12.32;;;3.80;;
8464;SDS011;72380;52.680;13.606;2023-09-12T10:38:33;8.82;;;3.47;;
8464;SDS011;72380;52.680;13.606;2023-09-12T10:41:03;5.03;;;3.75;;
8464;SDS011;72380;52.680;13.606;2023-09-12T10:43:31;8.02;;;4.65;;
8464;SDS011;72380;52.680;13.606;2023-09-12T10:46:01;6.93;;;3.22;;
8464;SDS011;72380;52.680;13.606;2023-09-12T10:48:29;12.25;;;3.17;;
8464;SDS011;72380;52.680;13.606;2023-09-12T10:50:56;5.00;;;3.25;;
8464;SDS011;72380;52.680;13.606;2023-09-12T10:53:24;8.05;;;3.63;;
8464;SDS011;72380;52.680;13.606;2023-09-12T10:56:13;3.17;;;2.88;;
8464;SDS011;72380;52.680;13.606;2023-09-12T11:01:23;5.40;;;3.33;;
8464;SDS011;72380;52.680;13.606;2023-09-12T11:03:51;9.20;;;3.17;;
8464;SDS011;72380;52.680;13.606;2023-09-12T11:06:22;10.40;;;3.25;;
8464;SDS011;72380;52.680;13.606;2023-09-12T11:11:36;5.57;;;3.17;;
8464;SDS011;72380;52.680;13.606;2023-09-12T11:14:04;9.70;;;3.28;;
8464;SDS011;72380;52.680;13.606;2023-09-12T11:16:32;4.80;;;3.30;;
8464;SDS011;72380;52.680;13.606;2023-09-12T11:19:11;4.50;;;3.03;;
8464;SDS011;72380;52.680;13.606;2023-09-12T11:21:38;7.05;;;2.50;;
8464;SDS011;72380;52.680;13.606;2023-09-12T11:24:05;7.20;;;3.22;;
8464;SDS011;72380;52.680;13.606;2023-09-12T11:26:33;5.20;;;2.78;;
8464;SDS011;72380;52.680;13.606;2023-09-12T11:29:11;6.00;;;3.30;;
8464;SDS011;72380;52.680;13.606;2023-09-12T11:31:38;4.57;;;3.17;;
8464;SDS011;72380;52.680;13.606;2023-09-12T11:34:08;6.90;;;3.33;;
8464;SDS011;72380;52.680;13.606;2023-09-12T11:36:39;7.70;;;2.83;;
8464;SDS011;72380;52.680;13.606;2023-09-12T11:39:21;2.38;;;2.17;;
8464;SDS011;72380;52.680;13.606;2023-09-12T11:41:49;5.38;;;3.20;;
8464;SDS011;72380;52.680;13.606;2023-09-12T11:44:19;6.15;;;3.63;;
8464;SDS011;72380;52.680;13.606;2023-09-12T11:46:47;7.22;;;3.33;;
8464;SDS011;72380;52.680;13.606;2023-09-12T11:49:15;8.32;;;4.20;;
8464;SDS011;72380;52.680;13.606;2023-09-12T11:51:46;10.45;;;3.42;;
8464;SDS011;72380;52.680;13.606;2023-09-12T11:54:14;4.88;;;2.65;;
8464;SDS011;72380;52.680;13.606;2023-09-12T11:56:41;3.00;;;2.67;;
8464;SDS011;72380;52.680;13.606;2023-09-12T11:59:08;8.57;;;4.18;;
8464;SDS011;72380;52.680;13.606;2023-09-12T12:01:37;5.25;;;2.70;;
8464;SDS011;72380;52.680;13.606;2023-09-12T12:04:05;3.42;;;2.58;;
8464;SDS011;72380;52.680;13.606;2023-09-12T12:06:33;6.15;;;3.42;;
8464;SDS011;72380;52.680;13.606;2023-09-12T12:09:01;7.78;;;2.90;;
8464;SDS011;72380;52.680;13.606;2023-09-12T12:11:29;7.80;;;3.08;;
8464;SDS011;72380;52.680;13.606;2023-09-12T12:13:57;8.38;;;3.22;;
8464;SDS011;72380;52.680;13.606;2023-09-12T12:16:25;2.63;;;2.35;;
8464;SDS011;72380;52.680;13.606;2023-09-12T12:18:54;2.85;;;2.40;;
8464;SDS011;72380;52.680;13.606;2023-09-12T12:21:22;14.05;;;2.90;;
8464;SDS011;72380;52.680;13.606;2023-09-12T12:23:57;3.88;;;2.38;;
8464;SDS011;72380;52.680;13.606;2023-09-12T12:26:25;4.78;;;2.90;;
8464;SDS011;72380;52.680;13.606;2023-09-12T12:28:52;3.17;;;2.47;;
8464;SDS011;72380;52.680;13.606;2023-09-12T12:31:19;3.05;;;2.72;;
8464;SDS011;72380;52.680;13.606;2023-09-12T12:33:50;4.80;;;2.88;;
8464;SDS011;72380;52.680;13.606;2023-09-12T12:36:18;3.55;;;2.60;;
8464;SDS011;72380;52.680;13.606;2023-09-12T12:38:46;2.35;;;2.15;;
8464;SDS011;72380;52.680;13.606;2023-09-12T12:41:15;3.60;;;2.33;;
8464;SDS011;72380;52.680;13.606;2023-09-12T12:43:42;2.90;;;2.70;;
8464;SDS011;72380;52.680;13.606;2023-09-12T12:46:10;4.68;;;2.13;;
8464;SDS011;72380;52.680;13.606;2023-09-12T12:48:38;3.30;;;2.95;;
8464;SDS011;72380;52.680;13.606;2023-09-12T12:51:13;2.30;;;2.10;;
8464;SDS011;72380;52.680;13.606;2023-09-12T12:53:43;4.28;;;2.88;;
8464;SDS011;72380;52.680;13.606;2023-09-12T12:56:12;5.68;;;2.55;;
8464;SDS011;72380;52.680;13.606;2023-09-12T12:58:45;5.03;;;2.60;;
8464;SDS011;72380;52.680;13.606;2023-09-12T13:01:12;2.83;;;2.28;;
8464;SDS011;72380;52.680;13.606;2023-09-12T13:03:39;3.92;;;2.20;;
8464;SDS011;72380;52.680;13.606;2023-09-12T13:06:07;4.65;;;2.65;;
8464;SDS011;72380;52.680;13.606;2023-09-12T13:08:39;6.45;;;2.50;;
8464;SDS011;72380;52.680;13.606;2023-09-12T13:11:08;3.90;;;2.30;;
8464;SDS011;72380;52.680;13.606;2023-09-12T13:13:35;2.97;;;2.10;;
8464;SDS011;72380;52.680;13.606;2023-09-12T13:16:03;2.72;;;2.53;;
8464;SDS011;72380;52.680;13.606;2023-09-12T13:18:31;8.20;;;2.78;;
8464;SDS011;72380;52.680;13.606;2023-09-12T13:20:58;2.60;;;2.38;;
8464;SDS011;72380;52.680;13.606;2023-09-12T13:23:26;3.08;;;2.78;;
8464;SDS011;72380;52.680;13.606;2023-09-12T13:25:53;4.40;;;2.72;;
8464;SDS011;72380;52.680;13.606;2023-09-12T13:28:22;6.45;;;2.97;;
8464;SDS011;72380;52.680;13.606;2023-09-12T13:30:50;3.97;;;2.83;;
8464;SDS011;72380;52.680;13.606;2023-09-12T13:33:18;9.70;;;3.25;;
8464;SDS011;72380;52.680;13.606;2023-09-12T13:35:46;2.75;;;2.53;;
8464;SDS011;72380;52.680;13.606;2023-09-12T13:38:13;8.20;;;2.95;;
8464;SDS011;72380;52.680;13.606;2023-09-12T13:40:43;5.45;;;2.50;;
8464;SDS011;72380;52.680;13.606;2023-09-12T13:43:10;3.67;;;2.63;;
8464;SDS011;72380;52.680;13.606;2023-09-12T13:45:39;4.25;;;2.90;;
8464;SDS011;72380;52.680;13.606;2023-09-12T13:48:06;5.43;;;3.05;;
8464;SDS011;72380;52.680;13.606;2023-09-12T13:50:34;4.45;;;2.97;;
8464;SDS011;72380;52.680;13.606;2023-09-12T13:53:02;3.65;;;2.85;;
8464;SDS011;72380;52.680;13.606;2023-09-12T13:55:32;10.60;;;2.78;;
8464;SDS011;72380;52.680;13.606;2023-09-12T13:58:01;6.20;;;2.78;;
8464;SDS011;72380;52.680;13.606;2023-09-12T14:00:29;5.50;;;3.03;;
8464;SDS011;72380;52.680;13.606;2023-09-12T14:02:57;4.50;;;2.65;;
8464;SDS011;72380;52.680;13.606;2023-09-12T14:05:26;3.03;;;2.72;;
8464;SDS011;72380;52.680;13.606;2023-09-12T14:07:53;9.85;;;2.97;;
8464;SDS011;72380;52.680;13.606;2023-09-12T14:10:21;7.10;;;2.90;;
8464;SDS011;72380;52.680;13.606;2023-09-12T14:12:48;3.33;;;2.70;;
8464;SDS011;72380;52.680;13.606;2023-09-12T14:15:15;10.57;;;2.83;;
8464;SDS011;72380;52.680;13.606;2023-09-12T14:17:42;4.05;;;2.50;;
8464;SDS011;72380;52.680;13.606;2023-09-12T14:20:11;4.65;;;2.97;;
8464;SDS011;72380;52.680;13.606;2023-09-12T14:22:41;5.38;;;2.97;;
8464;SDS011;72380;52.680;13.606;2023-09-12T14:25:09;5.20;;;2.92;;
8464;SDS011;72380;52.680;13.606;2023-09-12T14:27:40;6.63;;;3.38;;
8464;SDS011;72380;52.680;13.606;2023-09-12T14:30:08;2.95;;;2.38;;
8464;SDS011;72380;52.680;13.606;2023-09-12T14:32:36;2.80;;;2.35;;
8464;SDS011;72380;52.680;13.606;2023-09-12T14:35:04;3.65;;;2.95;;
8464;SDS011;72380;52.680;13.606;2023-09-12T14:37:33;10.65;;;3.03;;
8464;SDS011;72380;52.680;13.606;2023-09-12T14:40:02;4.93;;;2.63;;
8464;SDS011;72380;52.680;13.606;2023-09-12T14:42:30;3.72;;;2.50;;
8464;SDS011;72380;52.680;13.606;2023-09-12T14:44:57;9.15;;;3.78;;
8464;SDS011;72380;52.680;13.606;2023-09-12T14:47:24;2.60;;;2.40;;
8464;SDS011;72380;52.680;13.606;2023-09-12T14:49:53;25.20;;;3.00;;
8464;SDS011;72380;52.680;13.606;2023-09-12T14:52:20;2.40;;;2.17;;
8464;SDS011;72380;52.680;13.606;2023-09-12T14:54:49;3.03;;;2.70;;
8464;SDS011;72380;52.680;13.606;2023-09-12T14:57:16;6.50;;;2.65;;